Impacts TAF Board INFO
FOR SITUATIONAL AWARENESS. NOT TO BE USED FOR FLIGHT PLANNING PURPOSES.
IDs:

KPIT - Pittsburgh Intl, PA, US

Issued at 2012 UTC 24 Apr 2018
Updated at 2104 UTC 24 Apr 2018
Potential Impact None Slight Moderate High
Time2051Z 24/22Z 24/23Z 25/00Z 25/01Z 25/02Z 25/03Z 25/04Z 25/05Z 25/06Z 25/07Z 25/08Z 25/09Z 25/10Z>>
Type OBS PRVL PRVL PRVL PRVL PRVL PRVL PRVL PRVL PRVL PRVL PRVL PRVL PRVL
VIS 7 >6 >6 >6 >6 >6 >6 >6 >6 >6 >6 >6 >6 >6
CIG 60 35 35 35 35 35 35 15 15 15 15 15 15 15
Cover OVC OVC OVC OVC OVC OVC OVC OVC OVC OVC OVC OVC OVC OVC
FltCat VFR VFR VFR VFR VFR VFR VFR MVFR MVFR MVFR MVFR MVFR MVFR MVFR
WX -RA -RA -RA -RA -RA -RA -RA VCSH VCSH VCSH VCSH VCSH VCSH VCSH
WDir 110 110 110 110 110 110 110 70 70 70 70 70 70 70
WSpd 9 8 8 8 8 8 8 8 8 8 8 8 8 8
WGst -- -- -- -- -- -- -- -- -- -- -- -- -- --

Raw TAF
KPIT 242012Z 2420/2524 11010KT P6SM -RA SCT015 BKN025
  FM242200 11008KT P6SM -RA SCT025 OVC035
  FM250400 07008KT P6SM VCSH OVC015
  FM251100 01006KT P6SM VCSH OVC008
  FM251700 32008KT P6SM VCSH OVC003


Raw METAR
KPIT 242051Z 11009KT 7SM -RA SCT025 BKN060 OVC075 12/10 A3000 RMK AO2 SLP166 P0004 60006 T01170100 56024
KPIT 242039Z 11012KT 5SM -RA BR FEW018 SCT027 OVC060 12/10 A3000 RMK AO2 P0003 T01170100
KPIT 241951Z 11011KT 6SM -RA BR SCT017 BKN024 OVC055 12/10 A3002 RMK AO2 SLP173 P0000 T01220100
KPIT 241916Z 11012G17KT 10SM -RA SCT014 BKN025 OVC055 12/11 A3003 RMK AO2 P0000 T01220106
KPIT 241851Z COR 11011KT 10SM -RA BKN014 BKN042 OVC065 12/11 A3004 RMK AO2 SLP179 P0002 T01220111

METAR Board
Radar Display
Forecast Discussion

FOR SITUATIONAL AWARENESS. NOT TO BE USED FOR FLIGHT PLANNING PURPOSES.